Aviation Digital Data Service (ADDS)

Output produced by METARs form (1928 UTC 18 April 2019)
found at http://www.aviationweather.gov/metar/data/
 
METAR text: ZLLL 181900Z 30001MPS CAVOK 10/M03 Q1010 NOSIG
Conditions at: ZLLL (LANZHOU , CN) observed 1900 UTC 18 April 2019
Temperature: 10.0°C (50°F)
Dewpoint: -3.0°C (27°F) [RH = 40%]
Pressure (altimeter): 29.82 inches Hg (1010.0 mb)
Winds: from the WNW (300 degrees) at 2 MPH (2 knots; 1.0 m/s)
Visibility: 6 or more miles (10+ km)
Ceiling: ceiling and visibility are OK
Clouds: unknown
Weather: no significant weather observed at this time

METAR text: ZLLL 181800Z 04002MPS CAVOK 13/M03 Q1010 NOSIG
Conditions at: ZLLL (LANZHOU , CN) observed 1800 UTC 18 April 2019
Temperature: 13.0°C (55°F)
Dewpoint: -3.0°C (27°F) [RH = 33%]
Pressure (altimeter): 29.82 inches Hg (1010.0 mb)
Winds: from the NE (40 degrees) at 5 MPH (4 knots; 2.1 m/s)
Visibility: 6 or more miles (10+ km)
Ceiling: ceiling and visibility are OK
Clouds: unknown
Weather: no significant weather observed at this time

METAR text: ZLLL 181700Z VRB01MPS CAVOK 14/M04 Q1010 NOSIG
Conditions at: ZLLL (LANZHOU , CN) observed 1700 UTC 18 April 2019
Temperature: 14.0°C (57°F)
Dewpoint: -4.0°C (25°F) [RH = 28%]
Pressure (altimeter): 29.82 inches Hg (1010.0 mb)
Winds: variable direction winds at 2 MPH (2 knots; 1.0 m/s)
Visibility: 6 or more miles (10+ km)
Ceiling: ceiling and visibility are OK
Clouds: unknown
Weather: no significant weather observed at this time

METAR text: ZLLL 181600Z 02003MPS CAVOK 17/M04 Q1011 NOSIG
Conditions at: ZLLL (LANZHOU , CN) observed 1600 UTC 18 April 2019
Temperature: 17.0°C (63°F)
Dewpoint: -4.0°C (25°F) [RH = 23%]
Pressure (altimeter): 29.85 inches Hg (1011.0 mb)
Winds: from the NNE (20 degrees) at 7 MPH (6 knots; 3.1 m/s)
Visibility: 6 or more miles (10+ km)
Ceiling: ceiling and visibility are OK
Clouds: unknown
Weather: no significant weather observed at this time

METAR text: ZLLL 181500Z 04003MPS 010V080 CAVOK 17/M04 Q1010 NOSIG
Conditions at: ZLLL (LANZHOU , CN) observed 1500 UTC 18 April 2019
Temperature: 17.0°C (63°F)
Dewpoint: -4.0°C (25°F) [RH = 23%]
Pressure (altimeter): 29.82 inches Hg (1010.0 mb)
Winds: from the NE (40 degrees) at 7 MPH (6 knots; 3.1 m/s)
Visibility: 6 or more miles (10+ km)
Ceiling: ceiling and visibility are OK
Clouds: unknown
Weather: no significant weather observed at this time

METAR text: ZLLL 181400Z 01006MPS CAVOK 18/M05 Q1010 NOSIG
Conditions at: ZLLL (LANZHOU , CN) observed 1400 UTC 18 April 2019
Temperature: 18.0°C (64°F)
Dewpoint: -5.0°C (23°F) [RH = 20%]
Pressure (altimeter): 29.82 inches Hg (1010.0 mb)
Winds: from the N (10 degrees) at 14 MPH (12 knots; 6.2 m/s)
Visibility: 6 or more miles (10+ km)
Ceiling: ceiling and visibility are OK
Clouds: unknown
Weather: no significant weather observed at this time

METAR text: ZLLL 181300Z 36007MPS CAVOK 19/M05 Q1009 NOSIG
Conditions at: ZLLL (LANZHOU , CN) observed 1300 UTC 18 April 2019
Temperature: 19.0°C (66°F)
Dewpoint: -5.0°C (23°F) [RH = 19%]
Pressure (altimeter): 29.79 inches Hg (1009.0 mb)
Winds: from the N (360 degrees) at 16 MPH (14 knots; 7.2 m/s)
Visibility: 6 or more miles (10+ km)
Ceiling: ceiling and visibility are OK
Clouds: unknown
Weather: no significant weather observed at this time

METAR text: ZLLL 181200Z 03004MPS CAVOK 21/M05 Q1008 NOSIG
Conditions at: ZLLL (LANZHOU , CN) observed 1200 UTC 18 April 2019
Temperature: 21.0°C (70°F)
Dewpoint: -5.0°C (23°F) [RH = 17%]
Pressure (altimeter): 29.76 inches Hg (1008.0 mb)
Winds: from the NNE (30 degrees) at 9 MPH (8 knots; 4.1 m/s)
Visibility: 6 or more miles (10+ km)
Ceiling: ceiling and visibility are OK
Clouds: unknown
Weather: no significant weather observed at this time

METAR text: ZLLL 181100Z 03007MPS CAVOK 23/M05 Q1006 NOSIG
Conditions at: ZLLL (LANZHOU , CN) observed 1100 UTC 18 April 2019
Temperature: 23.0°C (73°F)
Dewpoint: -5.0°C (23°F) [RH = 15%]
Pressure (altimeter): 29.70 inches Hg (1006.0 mb)
Winds: from the NNE (30 degrees) at 16 MPH (14 knots; 7.2 m/s)
Visibility: 6 or more miles (10+ km)
Ceiling: ceiling and visibility are OK
Clouds: unknown
Weather: no significant weather observed at this time

METAR text: ZLLL 181000Z 06006MPS 030V090 CAVOK 25/M01 Q1006 NOSIG
Conditions at: ZLLL (LANZHOU , CN) observed 1000 UTC 18 April 2019
Temperature: 25.0°C (77°F)
Dewpoint: -1.0°C (30°F) [RH = 18%]
Pressure (altimeter): 29.70 inches Hg (1006.0 mb)
Winds: from the ENE (60 degrees) at 14 MPH (12 knots; 6.2 m/s)
Visibility: 6 or more miles (10+ km)
Ceiling: ceiling and visibility are OK
Clouds: unknown
Weather: no significant weather observed at this time

METAR text: ZLLL 180900Z 05006MPS CAVOK 26/00 Q1006 NOSIG
Conditions at: ZLLL (LANZHOU , CN) observed 0900 UTC 18 April 2019
Temperature: 26.0°C (79°F)
Dewpoint: 0.0°C (32°F) [RH = 18%]
Pressure (altimeter): 29.70 inches Hg (1006.0 mb)
Winds: from the NE (50 degrees) at 14 MPH (12 knots; 6.2 m/s)
Visibility: 6 or more miles (10+ km)
Ceiling: ceiling and visibility are OK
Clouds: unknown
Weather: no significant weather observed at this time

METAR text: ZLLL 180800Z 05005MPS 020V090 CAVOK 25/02 Q1006 NOSIG
Conditions at: ZLLL (LANZHOU , CN) observed 0800 UTC 18 April 2019
Temperature: 25.0°C (77°F)
Dewpoint: 2.0°C (36°F) [RH = 22%]
Pressure (altimeter): 29.70 inches Hg (1006.0 mb)
Winds: from the NE (50 degrees) at 12 MPH (10 knots; 5.1 m/s)
Visibility: 6 or more miles (10+ km)
Ceiling: ceiling and visibility are OK
Clouds: unknown
Weather: no significant weather observed at this time

METAR text: ZLLL 180700Z 06005MPS 360V100 CAVOK 25/03 Q1007 NOSIG
Conditions at: ZLLL (LANZHOU , CN) observed 0700 UTC 18 April 2019
Temperature: 25.0°C (77°F)
Dewpoint: 3.0°C (37°F) [RH = 24%]
Pressure (altimeter): 29.73 inches Hg (1007.0 mb)
Winds: from the ENE (60 degrees) at 12 MPH (10 knots; 5.1 m/s)
Visibility: 6 or more miles (10+ km)
Ceiling: ceiling and visibility are OK
Clouds: unknown
Weather: no significant weather observed at this time

METAR text: ZLLL 180600Z 06005MPS 010V130 CAVOK 24/01 Q1008 NOSIG
Conditions at: ZLLL (LANZHOU , CN) observed 0600 UTC 18 April 2019
Temperature: 24.0°C (75°F)
Dewpoint: 1.0°C (34°F) [RH = 22%]
Pressure (altimeter): 29.76 inches Hg (1008.0 mb)
Winds: from the ENE (60 degrees) at 12 MPH (10 knots; 5.1 m/s)
Visibility: 6 or more miles (10+ km)
Ceiling: ceiling and visibility are OK
Clouds: unknown
Weather: no significant weather observed at this time

METAR text: ZLLL 180500Z 08005MPS 020V130 CAVOK 24/02 Q1008 BECMG TL0640 15003MPS
Conditions at: ZLLL (LANZHOU , CN) observed 0500 UTC 18 April 2019
Temperature: 24.0°C (75°F)
Dewpoint: 2.0°C (36°F) [RH = 24%]
Pressure (altimeter): 29.76 inches Hg (1008.0 mb)
Winds: from the E (80 degrees) at 12 MPH (10 knots; 5.1 m/s)
Visibility: 6 or more miles (10+ km)
Ceiling: ceiling and visibility are OK
Clouds: unknown
Weather: no significant weather observed at this time

METAR text: ZLLL 180400Z 10004MPS 060V150 CAVOK 22/03 Q1009 NOSIG
Conditions at: ZLLL (LANZHOU , CN) observed 0400 UTC 18 April 2019
Temperature: 22.0°C (72°F)
Dewpoint: 3.0°C (37°F) [RH = 29%]
Pressure (altimeter): 29.79 inches Hg (1009.0 mb)
Winds: from the E (100 degrees) at 9 MPH (8 knots; 4.1 m/s)
Visibility: 6 or more miles (10+ km)
Ceiling: ceiling and visibility are OK
Clouds: unknown
Weather: no significant weather observed at this time

METAR text: ZLLL 180300Z 10003MPS 060V150 CAVOK 19/02 Q1009 NOSIG
Conditions at: ZLLL (LANZHOU , CN) observed 0300 UTC 18 April 2019
Temperature: 19.0°C (66°F)
Dewpoint: 2.0°C (36°F) [RH = 32%]
Pressure (altimeter): 29.79 inches Hg (1009.0 mb)
Winds: from the E (100 degrees) at 7 MPH (6 knots; 3.1 m/s)
Visibility: 6 or more miles (10+ km)
Ceiling: ceiling and visibility are OK
Clouds: unknown
Weather: no significant weather observed at this time

METAR text: ZLLL 180200Z 13002MPS 080V190 CAVOK 18/03 Q1009 NOSIG
Conditions at: ZLLL (LANZHOU , CN) observed 0200 UTC 18 April 2019
Temperature: 18.0°C (64°F)
Dewpoint: 3.0°C (37°F) [RH = 37%]
Pressure (altimeter): 29.79 inches Hg (1009.0 mb)
Winds: from the SE (130 degrees) at 5 MPH (4 knots; 2.1 m/s)
Visibility: 6 or more miles (10+ km)
Ceiling: ceiling and visibility are OK
Clouds: unknown
Weather: no significant weather observed at this time

METAR text: ZLLL 180100Z VRB01MPS CAVOK 16/01 Q1009 NOSIG
Conditions at: ZLLL (LANZHOU , CN) observed 0100 UTC 18 April 2019
Temperature: 16.0°C (61°F)
Dewpoint: 1.0°C (34°F) [RH = 36%]
Pressure (altimeter): 29.79 inches Hg (1009.0 mb)
Winds: variable direction winds at 2 MPH (2 knots; 1.0 m/s)
Visibility: 6 or more miles (10+ km)
Ceiling: ceiling and visibility are OK
Clouds: unknown
Weather: no significant weather observed at this time

METAR text: ZLLL 180000Z 35002MPS CAVOK 12/M01 Q1008 NOSIG
Conditions at: ZLLL (LANZHOU , CN) observed 0000 UTC 18 April 2019
Temperature: 12.0°C (54°F)
Dewpoint: -1.0°C (30°F) [RH = 40%]
Pressure (altimeter): 29.76 inches Hg (1008.0 mb)
Winds: from the N (350 degrees) at 5 MPH (4 knots; 2.1 m/s)
Visibility: 6 or more miles (10+ km)
Ceiling: ceiling and visibility are OK
Clouds: unknown
Weather: no significant weather observed at this time

METAR text: ZLLL 172300Z 32002MPS CAVOK 06/M02 Q1008 NOSIG
Conditions at: ZLLL (LANZHOU , CN) observed 2300 UTC 17 April 2019
Temperature: 6.0°C (43°F)
Dewpoint: -2.0°C (28°F) [RH = 56%]
Pressure (altimeter): 29.76 inches Hg (1008.0 mb)
Winds: from the NW (320 degrees) at 5 MPH (4 knots; 2.1 m/s)
Visibility: 6 or more miles (10+ km)
Ceiling: ceiling and visibility are OK
Clouds: unknown
Weather: no significant weather observed at this time

METAR text: ZLLL 172200Z 34003MPS CAVOK 07/M02 Q1007 NOSIG
Conditions at: ZLLL (LANZHOU , CN) observed 2200 UTC 17 April 2019
Temperature: 7.0°C (45°F)
Dewpoint: -2.0°C (28°F) [RH = 53%]
Pressure (altimeter): 29.73 inches Hg (1007.0 mb)
Winds: from the NNW (340 degrees) at 7 MPH (6 knots; 3.1 m/s)
Visibility: 6 or more miles (10+ km)
Ceiling: ceiling and visibility are OK
Clouds: unknown
Weather: no significant weather observed at this time

METAR text: ZLLL 172100Z 32003MPS CAVOK 08/M02 Q1007 NOSIG
Conditions at: ZLLL (LANZHOU , CN) observed 2100 UTC 17 April 2019
Temperature: 8.0°C (46°F)
Dewpoint: -2.0°C (28°F) [RH = 49%]
Pressure (altimeter): 29.73 inches Hg (1007.0 mb)
Winds: from the NW (320 degrees) at 7 MPH (6 knots; 3.1 m/s)
Visibility: 6 or more miles (10+ km)
Ceiling: ceiling and visibility are OK
Clouds: unknown
Weather: no significant weather observed at this time

METAR text: ZLLL 172000Z 33003MPS CAVOK 07/M02 Q1007 NOSIG
Conditions at: ZLLL (LANZHOU , CN) observed 2000 UTC 17 April 2019
Temperature: 7.0°C (45°F)
Dewpoint: -2.0°C (28°F) [RH = 53%]
Pressure (altimeter): 29.73 inches Hg (1007.0 mb)
Winds: from the NNW (330 degrees) at 7 MPH (6 knots; 3.1 m/s)
Visibility: 6 or more miles (10+ km)
Ceiling: ceiling and visibility are OK
Clouds: unknown
Weather: no significant weather observed at this time

METAR text: ZLLL 171900Z 33003MPS CAVOK 07/M01 Q1007 NOSIG
Conditions at: ZLLL (LANZHOU , CN) observed 1900 UTC 17 April 2019
Temperature: 7.0°C (45°F)
Dewpoint: -1.0°C (30°F) [RH = 57%]
Pressure (altimeter): 29.73 inches Hg (1007.0 mb)
Winds: from the NNW (330 degrees) at 7 MPH (6 knots; 3.1 m/s)
Visibility: 6 or more miles (10+ km)
Ceiling: ceiling and visibility are OK
Clouds: unknown
Weather: no significant weather observed at this time

METAR text: ZLLL 171800Z 33002MPS CAVOK 07/M02 Q1007 NOSIG
Conditions at: ZLLL (LANZHOU , CN) observed 1800 UTC 17 April 2019
Temperature: 7.0°C (45°F)
Dewpoint: -2.0°C (28°F) [RH = 53%]
Pressure (altimeter): 29.73 inches Hg (1007.0 mb)
Winds: from the NNW (330 degrees) at 5 MPH (4 knots; 2.1 m/s)
Visibility: 6 or more miles (10+ km)
Ceiling: ceiling and visibility are OK
Clouds: unknown
Weather: no significant weather observed at this time

METAR text: ZLLL 171700Z 34003MPS CAVOK 09/M01 Q1008 NOSIG
Conditions at: ZLLL (LANZHOU , CN) observed 1700 UTC 17 April 2019
Temperature: 9.0°C (48°F)
Dewpoint: -1.0°C (30°F) [RH = 49%]
Pressure (altimeter): 29.76 inches Hg (1008.0 mb)
Winds: from the NNW (340 degrees) at 7 MPH (6 knots; 3.1 m/s)
Visibility: 6 or more miles (10+ km)
Ceiling: ceiling and visibility are OK
Clouds: unknown
Weather: no significant weather observed at this time

METAR text: ZLLL 171600Z 32002MPS CAVOK 10/M01 Q1008 NOSIG
Conditions at: ZLLL (LANZHOU , CN) observed 1600 UTC 17 April 2019
Temperature: 10.0°C (50°F)
Dewpoint: -1.0°C (30°F) [RH = 46%]
Pressure (altimeter): 29.76 inches Hg (1008.0 mb)
Winds: from the NW (320 degrees) at 5 MPH (4 knots; 2.1 m/s)
Visibility: 6 or more miles (10+ km)
Ceiling: ceiling and visibility are OK
Clouds: unknown
Weather: no significant weather observed at this time

METAR text: ZLLL 171500Z 33002MPS CAVOK 10/M03 Q1008 NOSIG
Conditions at: ZLLL (LANZHOU , CN) observed 1500 UTC 17 April 2019
Temperature: 10.0°C (50°F)
Dewpoint: -3.0°C (27°F) [RH = 40%]
Pressure (altimeter): 29.76 inches Hg (1008.0 mb)
Winds: from the NNW (330 degrees) at 5 MPH (4 knots; 2.1 m/s)
Visibility: 6 or more miles (10+ km)
Ceiling: ceiling and visibility are OK
Clouds: unknown
Weather: no significant weather observed at this time

METAR text: ZLLL 171400Z 33002MPS CAVOK 12/M04 Q1007 NOSIG
Conditions at: ZLLL (LANZHOU , CN) observed 1400 UTC 17 April 2019
Temperature: 12.0°C (54°F)
Dewpoint: -4.0°C (25°F) [RH = 32%]
Pressure (altimeter): 29.73 inches Hg (1007.0 mb)
Winds: from the NNW (330 degrees) at 5 MPH (4 knots; 2.1 m/s)
Visibility: 6 or more miles (10+ km)
Ceiling: ceiling and visibility are OK
Clouds: unknown
Weather: no significant weather observed at this time

METAR text: ZLLL 171300Z 32002MPS 290V350 CAVOK 16/M07 Q1007 NOSIG
Conditions at: ZLLL (LANZHOU , CN) observed 1300 UTC 17 April 2019
Temperature: 16.0°C (61°F)
Dewpoint: -7.0°C (19°F) [RH = 20%]
Pressure (altimeter): 29.73 inches Hg (1007.0 mb)
Winds: from the NW (320 degrees) at 5 MPH (4 knots; 2.1 m/s)
Visibility: 6 or more miles (10+ km)
Ceiling: ceiling and visibility are OK
Clouds: unknown
Weather: no significant weather observed at this time

METAR text: ZLLL 171200Z 08002MPS CAVOK 21/M11 Q1006 NOSIG
Conditions at: ZLLL (LANZHOU , CN) observed 1200 UTC 17 April 2019
Temperature: 21.0°C (70°F)
Dewpoint: -11.0°C (12°F) [RH = 11%]
Pressure (altimeter): 29.70 inches Hg (1006.0 mb)
Winds: from the E (80 degrees) at 5 MPH (4 knots; 2.1 m/s)
Visibility: 6 or more miles (10+ km)
Ceiling: ceiling and visibility are OK
Clouds: unknown
Weather: no significant weather observed at this time

METAR text: ZLLL 171100Z 14002MPS 110V170 CAVOK 27/M14 Q1005 NOSIG
Conditions at: ZLLL (LANZHOU , CN) observed 1100 UTC 17 April 2019
Temperature: 27.0°C (81°F)
Dewpoint: -14.0°C ( 7°F) [RH =  6%]
Pressure (altimeter): 29.68 inches Hg (1005.0 mb)
Winds: from the SE (140 degrees) at 5 MPH (4 knots; 2.1 m/s)
Visibility: 6 or more miles (10+ km)
Ceiling: ceiling and visibility are OK
Clouds: unknown
Weather: no significant weather observed at this time

METAR text: ZLLL 171000Z 15003MPS 110V180 CAVOK 28/M15 Q1005 NOSIG
Conditions at: ZLLL (LANZHOU , CN) observed 1000 UTC 17 April 2019
Temperature: 28.0°C (82°F)
Dewpoint: -15.0°C ( 5°F) [RH =  5%]
Pressure (altimeter): 29.68 inches Hg (1005.0 mb)
Winds: from the SSE (150 degrees) at 7 MPH (6 knots; 3.1 m/s)
Visibility: 6 or more miles (10+ km)
Ceiling: ceiling and visibility are OK
Clouds: unknown
Weather: no significant weather observed at this time

METAR text: ZLLL 170900Z 15003MPS 110V180 CAVOK 28/M17 Q1006 NOSIG
Conditions at: ZLLL (LANZHOU , CN) observed 0900 UTC 17 April 2019
Temperature: 28.0°C (82°F)
Dewpoint: -17.0°C ( 1°F) [RH =  4%]
Pressure (altimeter): 29.70 inches Hg (1006.0 mb)
Winds: from the SSE (150 degrees) at 7 MPH (6 knots; 3.1 m/s)
Visibility: 6 or more miles (10+ km)
Ceiling: ceiling and visibility are OK
Clouds: unknown
Weather: no significant weather observed at this time

METAR text: ZLLL 170800Z 18005MPS CAVOK 28/M18 Q1006 NOSIG
Conditions at: ZLLL (LANZHOU , CN) observed 0800 UTC 17 April 2019
Temperature: 28.0°C (82°F)
Dewpoint: -18.0°C (-0°F) [RH =  4%]
Pressure (altimeter): 29.70 inches Hg (1006.0 mb)
Winds: from the S (180 degrees) at 12 MPH (10 knots; 5.1 m/s)
Visibility: 6 or more miles (10+ km)
Ceiling: ceiling and visibility are OK
Clouds: unknown
Weather: no significant weather observed at this time

Forecast for: ZLLL (LANZHOU , CN)
Text: TAF ZLLL 181503Z 1818/1918 06004G10MPS 6000 SCT040 TX23/1908Z TN09/1822Z
Forecast period: 1800 UTC 18 April 2019 to 1800 UTC 19 April 2019
Forecast type: FROM: standard forecast or significant change
Winds: from the ENE (60 degrees) at 9 MPH (8 knots; 4.1 m/s)
gusting to 22 MPH (19 knots; 9.8 m/s)
Visibility: 4 miles (6 km)
Ceiling: at least 12,000 feet AGL
Clouds: scattered clouds at 4000 feet AGL
Weather: no significant weather forecast for this period
Text: TEMPO 1907/1913 -SHRA FEW033CB BKN040
Forecast period: 0700 to 1300 UTC 19 April 2019
Forecast type: TEMPORARY: The following changes expected for less than half the time period
Visibility: missing
Ceiling: 4000 feet AGL
Clouds: few clouds at 3300 feet AGL
broken clouds at 4000 feet AGL
Weather: -SHRA  (light rain showers)